Wilson Clyde — 8PRV — position and weather

sailwx.info

Track history (hours):
 
Tides and Currents Weather Stations Pressure Air Temp Water Temp Dewpoint Dewpoint Depression Visibility Wind Speed Wind Dir Waves Ship Positions

Wilson Clyde

Last reported at 2014-Sep-30 04:26 UTC. Time now 2014-Oct-02 16:34 UTC.
Position N 58°59' E 004°57'.

Length 100 m; draft 5.8 m.

Type: Ship. MMSI: 314187000.

Date/timePositionNaut miles runAvg speedWind from/ knotsBaromVisibWave heightAir tempDewpointWater temp
2014-Sep-30 04:26N 58°59' E 004°57'910.6
2014-Sep-30 03:33N 58°51' E 005°05'2611.0
2014-Sep-30 01:10N 58°28' E 005°30'710.7
2014-Sep-30 00:30N 58°23' E 005°39'1010.5
2014-Sep-29 23:33N 58°16' E 005°53'1110.8
2014-Sep-29 22:33N 58°10' E 006°11'1211.4
2014-Sep-29 21:32N 58°03' E 006°28'13610.4
2014-Sep-29 08:25N 57°49' E 010°43'9 8.2
2014-Sep-29 07:23N 57°41' E 010°38'0 0.4
2014-Sep-29 06:30N 57°41' E 010°38'0 0.0
2014-Sep-29 05:33N 57°41' E 010°38'0 0.0
2014-Sep-29 04:33N 57°41' E 010°38'0 0.0
2014-Sep-29 03:13N 57°41' E 010°38'0 0.0
2014-Sep-29 02:33N 57°41' E 010°38'7 3.4
2014-Sep-29 00:22N 57°37' E 010°50'810.1
2014-Sep-28 23:33N 57°34' E 011°04'1010.3
2014-Sep-28 22:33N 57°30' E 011°21'9 9.5
2014-Sep-28 21:33N 57°22' E 011°30'1110.5
2014-Sep-28 20:33N 57°12' E 011°37'10 9.9
2014-Sep-28 19:32N 57°02' E 011°43'1010.2
2014-Sep-28 18:33N 56°53' E 011°50'1010.3
2014-Sep-28 17:33N 56°43' E 011°56'1110.7
2014-Sep-28 16:33N 56°33' E 011°60'1010.4
2014-Sep-28 15:33N 56°23' E 012°04'9 9.4
2014-Sep-28 14:33N 56°15' E 012°13'1010.2
2014-Sep-28 13:33N 56°09' E 012°28'10 9.9
2014-Sep-28 12:33N 56°02' E 012°40'1010.2
2014-Sep-28 11:33N 55°52' E 012°44'1110.6
2014-Sep-28 10:33N 55°41' E 012°41'1010.1
2014-Sep-28 09:33N 55°31' E 012°43'1111.3
2014-Sep-28 08:33N 55°20' E 012°41'1010.5
2014-Sep-28 07:33N 55°15' E 012°57'2510.3
2014-Sep-28 05:09N 54°56' E 013°25'711.1
2014-Sep-28 04:33N 54°50' E 013°31'1111.1
2014-Sep-28 03:33N 54°41' E 013°40'1111.4
2014-Sep-28 02:33N 54°31' E 013°49'1111.0
2014-Sep-28 01:33N 54°21' E 013°58'1110.6
2014-Sep-28 00:33N 54°14' E 014°12'1111.0
2014-Sep-27 23:33N 54°03' E 014°15'9 9.2
2014-Sep-27 22:33N 53°54' E 014°15'8 8.1
2014-Sep-27 21:33N 53°47' E 014°22'1111.1
2014-Sep-27 20:33N 53°38' E 014°34'9 9.1
2014-Sep-27 19:33N 53°30' E 014°37'0 0.0
2014-Sep-27 18:32N 53°30' E 014°37'0 0.0
2014-Sep-27 17:32N 53°30' E 014°37'0 0.0
2014-Sep-27 16:32N 53°30' E 014°37'0 0.0
2014-Sep-27 15:32N 53°30' E 014°37'0 0.0
2014-Sep-27 14:32N 53°30' E 014°37'0 0.0
2014-Sep-27 13:33N 53°30' E 014°37'0 0.0
2014-Sep-27 12:33N 53°30' E 014°37'0 0.0
2014-Sep-27 11:33N 53°30' E 014°37'0 0.0
2014-Sep-27 10:33N 53°30' E 014°37'0 0.0
2014-Sep-27 09:33N 53°30' E 014°37'0 0.0
2014-Sep-27 08:33N 53°30' E 014°37'0 0.0
2014-Sep-27 07:33N 53°30' E 014°37'0 0.0
2014-Sep-27 06:33N 53°30' E 014°37'0 0.0
2014-Sep-27 05:33N 53°30' E 014°37'0 0.0
2014-Sep-27 04:33N 53°30' E 014°37'0 0.0
2014-Sep-27 03:33N 53°30' E 014°37'0 0.0
2014-Sep-27 02:33N 53°30' E 014°37'0 0.0
2014-Sep-27 01:33N 53°30' E 014°37'0 0.0
2014-Sep-27 00:33N 53°30' E 014°37'0 0.0
2014-Sep-26 23:33N 53°30' E 014°37'0 0.0
2014-Sep-26 22:33N 53°30' E 014°37'4 4.1
2014-Sep-26 21:33N 53°26' E 014°36'1 1.2
2014-Sep-26 20:31N 53°24' E 014°36'0 0.0
2014-Sep-26 19:31N 53°24' E 014°36'0 0.0
2014-Sep-26 18:31N 53°24' E 014°36'0 0.0
2014-Sep-26 17:31N 53°24' E 014°36'0 0.0
2014-Sep-26 16:31N 53°24' E 014°36'0 0.0
2014-Sep-26 15:31N 53°24' E 014°36'0 0.0
2014-Sep-26 14:31N 53°24' E 014°36'0 0.0
2014-Sep-26 13:31N 53°24' E 014°36'0 0.0
2014-Sep-26 12:31N 53°24' E 014°36'0 0.0
2014-Sep-26 11:31N 53°24' E 014°36'0 0.0
2014-Sep-26 10:31N 53°24' E 014°36'0 0.0
2014-Sep-26 09:31N 53°24' E 014°36'0 0.0
2014-Sep-26 08:31N 53°24' E 014°36'0 0.0
2014-Sep-26 07:31N 53°24' E 014°36'0 0.0
2014-Sep-26 06:31N 53°24' E 014°36'0 0.0
2014-Sep-26 05:31N 53°24' E 014°36'0 0.0
2014-Sep-26 04:31N 53°24' E 014°36'0 0.0
2014-Sep-26 03:33N 53°24' E 014°36'4 4.3
2014-Sep-26 02:33N 53°29' E 014°37'9 9.3
2014-Sep-26 01:34N 53°38' E 014°35'1211.4
2014-Sep-26 00:32N 53°47' E 014°22'8 8.4
2014-Sep-25 23:33N 53°54' E 014°15'9 9.0
2014-Sep-25 22:33N 54°03' E 014°14'11 9.6
2014-Sep-25 21:23N 54°14' E 014°10'911.4
2014-Sep-25 20:33N 54°20' E 013°57'1211.6
2014-Sep-25 19:33N 54°30' E 013°47'1211.6
2014-Sep-25 18:33N 54°40' E 013°38'1111.1
2014-Sep-25 17:33N 54°44' E 013°20'1211.6
2014-Sep-25 16:33N 54°42' E 012°60'1211.7
2014-Sep-25 15:33N 54°40' E 012°40'1111.3
2014-Sep-25 14:33N 54°32' E 012°26'1212.0
2014-Sep-25 13:33N 54°22' E 012°13'10 9.9
2014-Sep-25 12:33N 54°13' E 012°05'6 5.1
2014-Sep-25 11:21N 54°07' E 012°05'0 0.0
2014-Sep-25 09:06N 54°07' E 012°05'0 0.0
2014-Sep-25 08:18N 54°07' E 012°05'0 0.0
2014-Sep-25 07:33N 54°07' E 012°05'0 0.0
2014-Sep-25 06:27N 54°07' E 012°05'0 0.0
2014-Sep-25 05:33N 54°07' E 012°05'0 0.0
2014-Sep-25 04:30N 54°07' E 012°05'0 0.0
2014-Sep-25 03:34N 54°07' E 012°05'0 0.0
2014-Sep-25 02:33N 54°07' E 012°05'0 0.0
2014-Sep-25 01:27N 54°07' E 012°05'0 0.0
2014-Sep-25 00:30N 54°07' E 012°05'0 0.0
2014-Sep-24 23:30N 54°07' E 012°05'0 0.0
2014-Sep-24 22:30N 54°07' E 012°05'0 0.0
2014-Sep-24 21:04N 54°07' E 012°05'0 0.0
2014-Sep-24 20:30N 54°07' E 012°05'0 0.0
2014-Sep-24 19:31N 54°07' E 012°05'0 0.0
2014-Sep-24 18:34N 54°07' E 012°05'0 0.0
2014-Sep-24 17:30N 54°07' E 012°05'0 0.0
2014-Sep-24 16:12N 54°07' E 012°05'0 0.0
2014-Sep-24 15:25N 54°07' E 012°05'0 0.0
2014-Sep-24 14:18N 54°07' E 012°05'0 0.0
2014-Sep-24 13:06N 54°07' E 012°05'0 0.0
2014-Sep-24 12:03N 54°07' E 012°05'0 0.0
2014-Sep-24 11:27N 54°07' E 012°05'0 0.0
2014-Sep-24 10:33N 54°07' E 012°05'0 0.0
2014-Sep-24 09:31N 54°07' E 012°05'0 0.0
2014-Sep-24 08:19N 54°07' E 012°05'0 0.0
2014-Sep-24 07:15N 54°07' E 012°05'0 0.0
2014-Sep-24 06:31N 54°07' E 012°05'0 0.0
2014-Sep-24 04:16N 54°07' E 012°05'0 0.0
2014-Sep-24 03:27N 54°07' E 012°05'0 0.0
2014-Sep-24 02:21N 54°07' E 012°05'0 0.0
2014-Sep-24 01:24N 54°07' E 012°05'0 0.0
2014-Sep-24 00:27N 54°07' E 012°05'0 0.0
2014-Sep-23 23:28N 54°07' E 012°05'0 0.0
2014-Sep-23 22:30N 54°07' E 012°05'0 0.0
2014-Sep-23 21:30N 54°07' E 012°05'0 0.0
2014-Sep-23 20:31N 54°07' E 012°05'0 0.0
2014-Sep-23 19:09N 54°07' E 012°05'0 0.0
2014-Sep-23 18:31N 54°07' E 012°05'0 0.0
2014-Sep-23 16:10N 54°07' E 012°05'0 0.0
2014-Sep-23 14:33N 54°07' E 012°05'0 0.0
2014-Sep-23 13:27N 54°07' E 012°05'0 0.0
2014-Sep-23 12:24N 54°07' E 012°05'0 0.0
2014-Sep-23 10:30N 54°07' E 012°05'0 0.0
2014-Sep-23 09:24N 54°07' E 012°05'0 0.0
2014-Sep-23 08:31N 54°07' E 012°05'0 0.0
2014-Sep-23 07:25N 54°07' E 012°05'0 0.0
2014-Sep-23 06:31N 54°07' E 012°05'1 1.2
2014-Sep-23 05:33N 54°08' E 012°06'8 8.4
2014-Sep-23 04:33N 54°16' E 012°01'6 5.8
2014-Sep-23 03:27N 54°22' E 012°07'4 4.6
2014-Sep-23 02:32N 54°26' E 012°09'5 5.1
2014-Sep-23 01:33N 54°31' E 012°12'5 5.1
2014-Sep-23 00:33N 54°36' E 012°14'5 5.4
2014-Sep-22 23:33N 54°39' E 012°21'6 5.3
2014-Sep-22 22:30N 54°43' E 012°29'5 5.1
2014-Sep-22 21:33N 54°45' E 012°36'6 6.0
2014-Sep-22 20:31N 54°48' E 012°46'7 6.4
2014-Sep-22 19:28N 54°50' E 012°57'6 6.2
2014-Sep-22 18:33N 54°52' E 013°06'12 7.9
2014-Sep-22 17:04N 54°56' E 013°25'5 9.4
2014-Sep-22 16:33N 54°57' E 013°33'39 9.7
2014-Sep-22 12:33N 55°20' E 014°28'1010.2
2014-Sep-22 11:32N 55°27' E 014°41'10 9.7
2014-Sep-22 10:33N 55°32' E 014°55'49 9.7
2014-Sep-22 05:29N 55°57' E 016°10'  
Track history (hours):
 
Tides and Currents Weather Stations Pressure Air Temp Water Temp Dewpoint Dewpoint Depression Visibility Wind Speed Wind Dir Waves Ship Positions

Wilson Clyde

Last reported at 2014-Sep-30 04:26 UTC. Time now 2014-Oct-02 16:34 UTC.
Position N 58°59' E 004°57'.

Length 100 m; draft 5.8 m.

Type: Ship. MMSI: 314187000.

Date/timePositionNaut miles runAvg speedWind from/ knotsBaromVisibWave heightAir tempDewpointWater temp
2014-Sep-30 04:26N 58°59' E 004°57'910.6
2014-Sep-30 03:33N 58°51' E 005°05'2611.0
2014-Sep-30 01:10N 58°28' E 005°30'710.7
2014-Sep-30 00:30N 58°23' E 005°39'1010.5
2014-Sep-29 23:33N 58°16' E 005°53'1110.8
2014-Sep-29 22:33N 58°10' E 006°11'1211.4
2014-Sep-29 21:32N 58°03' E 006°28'13610.4
2014-Sep-29 08:25N 57°49' E 010°43'9 8.2
2014-Sep-29 07:23N 57°41' E 010°38'0 0.4
2014-Sep-29 06:30N 57°41' E 010°38'0 0.0
2014-Sep-29 05:33N 57°41' E 010°38'0 0.0
2014-Sep-29 04:33N 57°41' E 010°38'0 0.0
2014-Sep-29 03:13N 57°41' E 010°38'0 0.0
2014-Sep-29 02:33N 57°41' E 010°38'7 3.4
2014-Sep-29 00:22N 57°37' E 010°50'810.1
2014-Sep-28 23:33N 57°34' E 011°04'1010.3
2014-Sep-28 22:33N 57°30' E 011°21'9 9.5
2014-Sep-28 21:33N 57°22' E 011°30'1110.5
2014-Sep-28 20:33N 57°12' E 011°37'10 9.9
2014-Sep-28 19:32N 57°02' E 011°43'1010.2
2014-Sep-28 18:33N 56°53' E 011°50'1010.3
2014-Sep-28 17:33N 56°43' E 011°56'1110.7
2014-Sep-28 16:33N 56°33' E 011°60'1010.4
2014-Sep-28 15:33N 56°23' E 012°04'9 9.4
2014-Sep-28 14:33N 56°15' E 012°13'1010.2
2014-Sep-28 13:33N 56°09' E 012°28'10 9.9
2014-Sep-28 12:33N 56°02' E 012°40'1010.2
2014-Sep-28 11:33N 55°52' E 012°44'1110.6
2014-Sep-28 10:33N 55°41' E 012°41'1010.1
2014-Sep-28 09:33N 55°31' E 012°43'1111.3
2014-Sep-28 08:33N 55°20' E 012°41'1010.5
2014-Sep-28 07:33N 55°15' E 012°57'2510.3
2014-Sep-28 05:09N 54°56' E 013°25'711.1
2014-Sep-28 04:33N 54°50' E 013°31'1111.1
2014-Sep-28 03:33N 54°41' E 013°40'1111.4
2014-Sep-28 02:33N 54°31' E 013°49'1111.0
2014-Sep-28 01:33N 54°21' E 013°58'1110.6
2014-Sep-28 00:33N 54°14' E 014°12'1111.0
2014-Sep-27 23:33N 54°03' E 014°15'9 9.2
2014-Sep-27 22:33N 53°54' E 014°15'8 8.1
2014-Sep-27 21:33N 53°47' E 014°22'1111.1
2014-Sep-27 20:33N 53°38' E 014°34'9 9.1
2014-Sep-27 19:33N 53°30' E 014°37'0 0.0
2014-Sep-27 18:32N 53°30' E 014°37'0 0.0
2014-Sep-27 17:32N 53°30' E 014°37'0 0.0
2014-Sep-27 16:32N 53°30' E 014°37'0 0.0
2014-Sep-27 15:32N 53°30' E 014°37'0 0.0
2014-Sep-27 14:32N 53°30' E 014°37'0 0.0
2014-Sep-27 13:33N 53°30' E 014°37'0 0.0
2014-Sep-27 12:33N 53°30' E 014°37'0 0.0
2014-Sep-27 11:33N 53°30' E 014°37'0 0.0
2014-Sep-27 10:33N 53°30' E 014°37'0 0.0
2014-Sep-27 09:33N 53°30' E 014°37'0 0.0
2014-Sep-27 08:33N 53°30' E 014°37'0 0.0
2014-Sep-27 07:33N 53°30' E 014°37'0 0.0
2014-Sep-27 06:33N 53°30' E 014°37'0 0.0
2014-Sep-27 05:33N 53°30' E 014°37'0 0.0
2014-Sep-27 04:33N 53°30' E 014°37'0 0.0
2014-Sep-27 03:33N 53°30' E 014°37'0 0.0
2014-Sep-27 02:33N 53°30' E 014°37'0 0.0
2014-Sep-27 01:33N 53°30' E 014°37'0 0.0
2014-Sep-27 00:33N 53°30' E 014°37'0 0.0
2014-Sep-26 23:33N 53°30' E 014°37'0 0.0
2014-Sep-26 22:33N 53°30' E 014°37'4 4.1
2014-Sep-26 21:33N 53°26' E 014°36'1 1.2
2014-Sep-26 20:31N 53°24' E 014°36'0 0.0
2014-Sep-26 19:31N 53°24' E 014°36'0 0.0
2014-Sep-26 18:31N 53°24' E 014°36'0 0.0
2014-Sep-26 17:31N 53°24' E 014°36'0 0.0
2014-Sep-26 16:31N 53°24' E 014°36'0 0.0
2014-Sep-26 15:31N 53°24' E 014°36'0 0.0
2014-Sep-26 14:31N 53°24' E 014°36'0 0.0
2014-Sep-26 13:31N 53°24' E 014°36'0 0.0
2014-Sep-26 12:31N 53°24' E 014°36'0 0.0
2014-Sep-26 11:31N 53°24' E 014°36'0 0.0
2014-Sep-26 10:31N 53°24' E 014°36'0 0.0
2014-Sep-26 09:31N 53°24' E 014°36'0 0.0
2014-Sep-26 08:31N 53°24' E 014°36'0 0.0
2014-Sep-26 07:31N 53°24' E 014°36'0 0.0
2014-Sep-26 06:31N 53°24' E 014°36'0 0.0
2014-Sep-26 05:31N 53°24' E 014°36'0 0.0
2014-Sep-26 04:31N 53°24' E 014°36'0 0.0
2014-Sep-26 03:33N 53°24' E 014°36'4 4.3
2014-Sep-26 02:33N 53°29' E 014°37'9 9.3
2014-Sep-26 01:34N 53°38' E 014°35'1211.4
2014-Sep-26 00:32N 53°47' E 014°22'8 8.4
2014-Sep-25 23:33N 53°54' E 014°15'9 9.0
2014-Sep-25 22:33N 54°03' E 014°14'11 9.6
2014-Sep-25 21:23N 54°14' E 014°10'911.4
2014-Sep-25 20:33N 54°20' E 013°57'1211.6
2014-Sep-25 19:33N 54°30' E 013°47'1211.6
2014-Sep-25 18:33N 54°40' E 013°38'1111.1
2014-Sep-25 17:33N 54°44' E 013°20'1211.6
2014-Sep-25 16:33N 54°42' E 012°60'1211.7
2014-Sep-25 15:33N 54°40' E 012°40'1111.3
2014-Sep-25 14:33N 54°32' E 012°26'1212.0
2014-Sep-25 13:33N 54°22' E 012°13'10 9.9
2014-Sep-25 12:33N 54°13' E 012°05'6 5.1
2014-Sep-25 11:21N 54°07' E 012°05'0 0.0
2014-Sep-25 09:06N 54°07' E 012°05'0 0.0
2014-Sep-25 08:18N 54°07' E 012°05'0 0.0
2014-Sep-25 07:33N 54°07' E 012°05'0 0.0
2014-Sep-25 06:27N 54°07' E 012°05'0 0.0
2014-Sep-25 05:33N 54°07' E 012°05'0 0.0
2014-Sep-25 04:30N 54°07' E 012°05'0 0.0
2014-Sep-25 03:34N 54°07' E 012°05'0 0.0
2014-Sep-25 02:33N 54°07' E 012°05'0 0.0
2014-Sep-25 01:27N 54°07' E 012°05'0 0.0
2014-Sep-25 00:30N 54°07' E 012°05'0 0.0
2014-Sep-24 23:30N 54°07' E 012°05'0 0.0
2014-Sep-24 22:30N 54°07' E 012°05'0 0.0
2014-Sep-24 21:04N 54°07' E 012°05'0 0.0
2014-Sep-24 20:30N 54°07' E 012°05'0 0.0
2014-Sep-24 19:31N 54°07' E 012°05'0 0.0
2014-Sep-24 18:34N 54°07' E 012°05'0 0.0
2014-Sep-24 17:30N 54°07' E 012°05'0 0.0
2014-Sep-24 16:12N 54°07' E 012°05'0 0.0
2014-Sep-24 15:25N 54°07' E 012°05'0 0.0
2014-Sep-24 14:18N 54°07' E 012°05'0 0.0
2014-Sep-24 13:06N 54°07' E 012°05'0 0.0
2014-Sep-24 12:03N 54°07' E 012°05'0 0.0
2014-Sep-24 11:27N 54°07' E 012°05'0 0.0
2014-Sep-24 10:33N 54°07' E 012°05'0 0.0
2014-Sep-24 09:31N 54°07' E 012°05'0 0.0
2014-Sep-24 08:19N 54°07' E 012°05'0 0.0
2014-Sep-24 07:15N 54°07' E 012°05'0 0.0
2014-Sep-24 06:31N 54°07' E 012°05'0 0.0
2014-Sep-24 04:16N 54°07' E 012°05'0 0.0
2014-Sep-24 03:27N 54°07' E 012°05'0 0.0
2014-Sep-24 02:21N 54°07' E 012°05'0 0.0
2014-Sep-24 01:24N 54°07' E 012°05'0 0.0
2014-Sep-24 00:27N 54°07' E 012°05'0 0.0
2014-Sep-23 23:28N 54°07' E 012°05'0 0.0
2014-Sep-23 22:30N 54°07' E 012°05'0 0.0
2014-Sep-23 21:30N 54°07' E 012°05'0 0.0
2014-Sep-23 20:31N 54°07' E 012°05'0 0.0
2014-Sep-23 19:09N 54°07' E 012°05'0 0.0
2014-Sep-23 18:31N 54°07' E 012°05'0 0.0
2014-Sep-23 16:10N 54°07' E 012°05'0 0.0
2014-Sep-23 14:33N 54°07' E 012°05'0 0.0
2014-Sep-23 13:27N 54°07' E 012°05'0 0.0
2014-Sep-23 12:24N 54°07' E 012°05'0 0.0
2014-Sep-23 10:30N 54°07' E 012°05'0 0.0
2014-Sep-23 09:24N 54°07' E 012°05'0 0.0
2014-Sep-23 08:31N 54°07' E 012°05'0 0.0
2014-Sep-23 07:25N 54°07' E 012°05'0 0.0
2014-Sep-23 06:31N 54°07' E 012°05'1 1.2
2014-Sep-23 05:33N 54°08' E 012°06'8 8.4
2014-Sep-23 04:33N 54°16' E 012°01'6 5.8
2014-Sep-23 03:27N 54°22' E 012°07'4 4.6
2014-Sep-23 02:32N 54°26' E 012°09'5 5.1
2014-Sep-23 01:33N 54°31' E 012°12'5 5.1
2014-Sep-23 00:33N 54°36' E 012°14'5 5.4
2014-Sep-22 23:33N 54°39' E 012°21'6 5.3
2014-Sep-22 22:30N 54°43' E 012°29'5 5.1
2014-Sep-22 21:33N 54°45' E 012°36'6 6.0
2014-Sep-22 20:31N 54°48' E 012°46'7 6.4
2014-Sep-22 19:28N 54°50' E 012°57'6 6.2
2014-Sep-22 18:33N 54°52' E 013°06'12 7.9
2014-Sep-22 17:04N 54°56' E 013°25'5 9.4
2014-Sep-22 16:33N 54°57' E 013°33'39 9.7
2014-Sep-22 12:33N 55°20' E 014°28'1010.2
2014-Sep-22 11:32N 55°27' E 014°41'10 9.7
2014-Sep-22 10:33N 55°32' E 014°55'49 9.7
2014-Sep-22 05:29N 55°57' E 016°10'  

Dump ship's entire track history